Country Club Hills, Missouri
Current Conditions -  °F | °C
As of 4:51 AM on Sunday 23 Nov 2014 (Local Time) from KSTL Reporting Station
Overcast Overcast  
Wind Chill: 53°   Ceiling: 10000
Heat Index: 53°   Visibility: 10mi
Dew Point: 44°   Wind: 14mph
Humidity: 71%   Direction: 160°SSE
Pressure: 29.75"   Gusts: NA
Location:  38.7423°N, 90.2608°W
Report Text: KSTL 231051Z 16012KT 10SM OVC100 12/07 A2975 RMK AO2 SLP074 T01170067
Loading
Personal Weather Stations






























Interactive Weather Map New forecast layout! Learn more

10-Day Weather Forecast

Advertisements
Track Severe Weather on mobile